Tiempo atmosférico en la estación meteorológica de Mosqueruela, Teruel (1505 m.)



Fecha
DESCASC
Temp. máxima en grados centígrados (hora)
DESCASC
Temp. mínima en grados centígrados (hora)
DESCASC
Temp. media en grados centígrados
DESCASC
Racha de viento máxima en m/sg (hora)
DESCASC
Velocidad máxima media en intervalos de 10 minutos(hora)
DESCASC
Precipitaciones diarias en mm
DESCASC
Precipitaciones de 00:00 a 06:00 en mm
DESCASC
Precipitaciones de 06:00 a 12:00 en mm
DESCASC
Precipitaciones de 12:00 a 18:00 en mm
DESCASC
Precipitaciones de 18:00 a 24:00 en mm
DESCASC
02-08-2020 26 (13:20) 15 (23:59) 20.5 8.89 (20:10) 5.56 (15:30) 0.4 0 0 0.4 0
01-08-2020 32.7 (15:40) 18.1 (23:59) 25.4 15.28 (14:40) 8.89 (13:20) 0.2 0.2 0 0 0
31-07-2020 31.7 (15:10) 16.9 (07:20) 24.3 12.78 (13:20) 7.78 (19:10) 5.4 0 0 0 5.4
30-07-2020 30.2 (15:40) 17.5 (00:00) 23.9 19.72 (22:40) 14.72 (22:40) 0 0 0 0 0
29-07-2020 27.4 (16:10) 14.4 (00:00) 20.9 9.44 (13:10) 6.11 (13:10) 0 0 0 0 0
28-07-2020 28.6 (14:50) 18.6 (23:20) 23.6 12.22 (15:40) 7.5 (15:20) 0 0 0 0 0
27-07-2020 31.4 (16:00) 20 (00:00) 25.7 13.33 (09:50) 8.33 (10:20) 0 0 0 0 0
26-07-2020 29.3 (13:10) 18.9 (00:00) 24.1 10.28 (17:10) 6.67 (17:20) 0 0 0 0 0
25-07-2020 27.9 (15:10) 12.4 (07:00) 20.1 10 (16:30) 6.67 (13:50) 0 0 0 0 0
24-07-2020 26 (13:30) 15 (00:00) 20.5 8.89 (14:50) 5.56 (15:10) 0.4 0 0.2 0.2 0
23-07-2020 27.6 (15:10) 14.8 (00:00) 21.2 8.33 (16:50) 5.28 (07:10) 0 0 0 0 0
22-07-2020 23.6 (13:10) 14.7 (04:30) 19.2 10.28 (15:20) 6.67 (15:20) 0.6 0.2 0.4 0 0
21-07-2020 27.8 (14:00) 15.5 (00:00) 21.6 10.56 (16:40) 6.11 (16:30) 0 0 0 0 0
20-07-2020 26.2 (16:00) 14.6 (03:50) 20.4 8.89 (17:00) 5.83 (17:30) 0.2 0 0.2 0 0
19-07-2020 26.7 (13:10) 14.8 (00:00) 20.8 10.56 (14:10) 7.22 (14:00) 6 0 0 4 2
18-07-2020 25.2 (14:20) 11 (00:00) 18.1 9.44 (10:30) 5.83 (11:20) 0 0 0 0 0
17-07-2020 24.6 (17:20) 11.9 (00:00) 18.3 8.33 (17:00) 6.11 (05:20) 0 0 0 0 0
16-07-2020 23.7 (17:50) 10.2 (00:00) 17 9.17 (18:10) 5 (09:50) 0 0 0 0 0
15-07-2020 23 (17:50) 9.5 (06:40) 16.3 6.94 (18:00) 4.44 (21:00) 0 0 0 0 0
14-07-2020 18.8 (20:10) 11.9 (00:00) 15.3 6.94 (11:20) 5 (02:00) 4.6 0.2 0 4.2 0.2
13-07-2020 23.5 (10:50) 13.8 (07:10) 18.7 8.61 (02:40) 6.11 (03:30) 3.2 0 0 3.2 0
12-07-2020 25.4 (12:30) 14.3 (16:20) 19.8 11.94 (16:20) 6.94 (11:10) 6.6 0 0 6.6 0
11-07-2020 24 (14:40) 12.9 (04:50) 18.4 11.94 (13:50) 5.83 (15:10) 0 0 0 0 0
10-07-2020 24.4 (13:50) 12 (00:00) 18.2 10 (15:00) 5.83 (14:30) 0 0 0 0 0
09-07-2020 26 (16:50) 14.5 (07:20) 20.3 10 (18:30) 7.22 (05:40) 2.6 0 2.4 0.2 0
08-07-2020 27.6 (15:20) 15.4 (06:00) 21.5 20.56 (18:50) 11.39 (18:50) 0.2 0 0 0 0.2

Gráficas

Temp. máximas Temp. mínimas Temp. medias Precipitaciones Rachas de viento máximas Velocidades máximas media en intervalos de 10 minutos

Datos horarios

Fecha y hora oficial Temperatura (ºC) Velocidad del viento (km/h) Dirección del viento Racha (km/h) Dirección de racha Precipitación (mm) Presión (hPa) Tendencia (hPa) Humedad (%)
2020-08-06 23:00:00 19.8 3 Sur 8 Sudoeste 0 -- -- 66
2020-08-06 22:00:00 19.3 4 Sudoeste 8 Sudoeste 0 -- -- 78
2020-08-06 21:00:00 21.5 0 Calma 14 Este 0 -- -- 72
2020-08-06 20:00:00 23.8 9 Sudeste 16 Este 0 -- -- 64
2020-08-06 19:00:00 24 10 Este 19 Este 0 -- -- 60
2020-08-06 18:00:00 24.7 13 Este 29 Este 0 -- -- 56
2020-08-06 17:00:00 26.9 14 Este 29 Nordeste 0 -- -- 51
2020-08-06 16:00:00 27.5 19 Nordeste 33 Este 0 -- -- 49
2020-08-06 15:00:00 28.2 14 Sudeste 33 Este 0 -- -- 42
2020-08-06 14:00:00 27 15 Sudeste 31 Sudeste 0 -- -- 43
2020-08-06 13:00:00 26.5 13 Sur 39 Sudeste 0 -- -- 43
2020-08-06 12:00:00 26 13 Este 26 Este 0 -- -- 45
2020-08-06 11:00:00 24.8 7 Este 15 Este 0 -- -- 49
2020-08-06 10:00:00 23.3 4 Sur 15 Sudoeste 0 -- -- 53
2020-08-06 09:00:00 20.6 7 Sudoeste 15 Sudoeste 0 -- -- 65
2020-08-06 08:00:00 17.6 2 Sudoeste 18 Oeste 0 -- -- 78
2020-08-06 07:00:00 16 8 Sudoeste 12 Sudoeste 0 -- -- 84
2020-08-06 06:00:00 15.9 6 Sur 11 Sur 0 -- -- 86
2020-08-06 05:00:00 15 0 Calma 10 Sur 0 -- -- 93
2020-08-06 04:00:00 15.6 3 Sudoeste 7 Sur 0 -- -- 93
2020-08-06 03:00:00 16.2 4 Sudoeste 9 Oeste 0 -- -- 90
2020-08-06 02:00:00 16.5 3 Oeste 15 Sudoeste 0 -- -- 91
2020-08-06 01:00:00 17.4 11 Sudoeste 12 Sudoeste 0 -- -- 89
2020-08-06 00:00:00 16.7 2 Sudoeste 12 Oeste 0 -- -- 95
2020-08-05 23:00:00 17 3 Sudoeste 9 Oeste 0 -- -- 91
2020-08-05 22:00:00 17.6 4 Sudoeste 9 Este 0 -- -- 93
2020-08-05 21:00:00 19.7 7 Este 13 Este 0 -- -- 87
2020-08-05 20:00:00 21 9 Este 18 Este 0 -- -- 82
2020-08-05 19:00:00 21.8 14 Este 22 Este 0 -- -- 77
2020-08-05 18:00:00 22.9 10 Este 27 Nordeste 0 -- -- 71
2020-08-05 17:00:00 24.2 9 Este 23 Este 0 -- -- 66
2020-08-05 16:00:00 24.7 10 Este 22 Este 0 -- -- 63
2020-08-05 15:00:00 23.3 7 Este 25 Este 0 -- -- 66
2020-08-05 14:00:00 24.5 15 Este 33 Este 0 -- -- 61
2020-08-05 13:00:00 25.5 14 Este 31 Sudeste 0 -- -- 49
2020-08-05 12:00:00 23.3 18 Sudeste 40 Sur 0 -- -- 54
2020-08-05 11:00:00 21.7 21 Sur 31 Sudeste 0 -- -- 59
2020-08-05 10:00:00 20 17 Sur 23 Sur 0 -- -- 70
2020-08-05 09:00:00 18.6 13 Sudoeste 21 Sudoeste 0 -- -- 73
2020-08-05 08:00:00 16.2 12 Sudoeste 21 Sudoeste 0 -- -- 79
2020-08-05 07:00:00 13.9 8 Sudoeste 17 Sudoeste 0 -- -- 87
2020-08-05 06:00:00 14.1 12 Sudoeste 22 Sudoeste 0 -- -- 86
2020-08-05 05:00:00 14.2 15 Sudoeste 23 Sudoeste 0 -- -- 80
2020-08-05 04:00:00 14.3 11 Sudoeste 15 Sudoeste 0 -- -- 77
2020-08-05 03:00:00 13.6 11 Sudoeste 17 Sudoeste 0 -- -- 72
2020-08-05 02:00:00 13.6 8 Sudoeste 12 Sudoeste 0 -- -- 58
2020-08-05 01:00:00 13.2 6 Oeste 12 Sudoeste 0 -- -- 59
2020-08-05 00:00:00 13.1 3 Sudoeste 14 Noroeste 0 -- -- 60
2020-08-04 23:00:00 14.9 2 Sudoeste 17 Noroeste 0 -- -- 56
2020-08-04 22:00:00 16.3 12 Noroeste 16 Noroeste 0 -- -- 53
2020-08-04 21:00:00 18.1 8 Norte 24 Norte 0 -- -- 49
2020-08-04 20:00:00 20.8 5 Sudoeste 16 Sudeste 0 -- -- 60
2020-08-04 19:00:00 20.7 12 Este 24 Norte 0 -- -- 64
2020-08-04 18:00:00 24.4 9 Norte 26 Nordeste 0 -- -- 38
2020-08-04 17:00:00 25.1 11 Norte 29 Este 0 -- -- 42
2020-08-04 16:00:00 24.1 10 Nordeste 24 Nordeste 0 -- -- 40
2020-08-04 15:00:00 25.2 13 Nordeste 30 Este 0 -- -- 35
2020-08-04 14:00:00 24.9 11 Nordeste 23 Nordeste 0 -- -- 33
2020-08-04 13:00:00 23.5 9 Norte 25 Noroeste 0 -- -- 33
2020-08-04 12:00:00 20.6 16 Noroeste 27 Noroeste 0 -- -- 42
2020-08-04 11:00:00 19.7 14 Noroeste 23 Oeste 0 -- -- 41
2020-08-04 10:00:00 17 18 Oeste 27 Oeste 0 -- -- 48
2020-08-04 09:00:00 14.7 17 Noroeste 31 Noroeste 0 -- -- 58
2020-08-04 08:00:00 13.6 11 Oeste 24 Oeste 0 -- -- 63
2020-08-04 07:00:00 11.7 19 Oeste 30 Oeste 0 -- -- 70
2020-08-04 06:00:00 12.6 18 Oeste 30 Noroeste 0 -- -- 66
2020-08-04 05:00:00 13.3 24 Oeste 36 Oeste 0 -- -- 63
2020-08-04 04:00:00 12.6 23 Oeste 35 Oeste 0 -- -- 68
2020-08-04 03:00:00 13 20 Oeste 35 Oeste 0 -- -- 66
2020-08-04 02:00:00 14 20 Oeste 34 Oeste 0 -- -- 60
2020-08-04 01:00:00 14.2 23 Oeste 30 Oeste 0 -- -- 57
2020-08-04 00:00:00 13.8 17 Oeste 25 Oeste 0 -- -- 65
2020-08-03 23:00:00 14.6 12 Oeste 15 Oeste 0 -- -- 56
2020-08-03 22:00:00 14.4 5 Sudoeste 15 Oeste 0 -- -- 53
2020-08-03 21:00:00 18.6 8 Oeste 25 Noroeste 0 -- -- 39
2020-08-03 20:00:00 21.2 16 Noroeste 33 Oeste 0 -- -- 38
2020-08-03 19:00:00 22.9 17 Noroeste 32 Noroeste 0 -- -- 38
2020-08-03 18:00:00 23.3 11 Nordeste 25 Este 0 -- -- 37
2020-08-03 17:00:00 22.6 13 Este 29 Nordeste 0 -- -- 39
2020-08-03 16:00:00 24.9 12 Nordeste 29 Este 0 -- -- 35
2020-08-03 15:00:00 25.3 15 Norte 27 Norte 0 -- -- 31
2020-08-03 14:00:00 23.2 15 Norte 28 Norte 0 -- -- 33
2020-08-03 13:00:00 22.4 16 Noroeste 30 Norte 0 -- -- 37
2020-08-03 12:00:00 19.5 5 Este 28 Noroeste 0 -- -- 64
2020-08-03 11:00:00 17.7 12 Noroeste 26 Noroeste 0 -- -- 68
2020-08-03 10:00:00 18.2 9 Noroeste 19 Noroeste 0 -- -- 76
2020-08-03 09:00:00 16.1 6 Nordeste 13 Oeste 0 -- -- 84
2020-08-03 08:00:00 13.2 8 Norte 22 Oeste 0 -- -- 91
2020-08-03 07:00:00 13 15 Oeste 25 Noroeste 0 -- -- 92
2020-08-03 06:00:00 13.6 3 Oeste 21 Noroeste 0 -- -- 93
2020-08-03 05:00:00 13.9 9 Oeste 16 Norte 0 -- -- 93
2020-08-03 04:00:00 13.4 8 Norte 14 Norte 0 -- -- 93
2020-08-03 03:00:00 14.2 2 Oeste 9 Nordeste 0 -- -- 93
2020-08-03 02:00:00 14 0 Calma 9 Nordeste 0 -- -- 91
2020-08-03 01:00:00 14 0 Calma 4 Oeste 0 -- -- 90
2020-08-03 00:00:00 15 3 Oeste 15 Oeste 0 -- -- 82
2020-08-02 23:00:00 16.3 12 Oeste 17 Oeste 0 -- -- 79
2020-08-02 22:00:00 17.5 9 Noroeste 13 Norte 0 -- -- 75
2020-08-02 21:00:00 17.9 5 Noroeste 32 Oeste 0 -- -- 78
2020-08-02 20:00:00 20.6 18 Nordeste 27 Nordeste 0 -- -- 68
2020-08-02 19:00:00 21.9 13 Nordeste 21 Este 0 -- -- 73
2020-08-02 18:00:00 22.3 5 Nordeste 23 Nordeste 0.4 -- -- 72
2020-08-02 17:00:00 21 17 Nordeste 26 Nordeste 0 -- -- 83
2020-08-02 16:00:00 23.4 12 Este 30 Este 0 -- -- 72
2020-08-02 15:00:00 24.6 18 Este 31 Nordeste 0 -- -- 65
2020-08-02 14:00:00 24.4 17 Nordeste 27 Este 0 -- -- 65
2020-08-02 13:00:00 24.7 8 Sudeste 27 Este 0 -- -- 60
2020-08-02 12:00:00 25 16 Este 26 Este 0 -- -- 56
2020-08-02 11:00:00 25.3 15 Sudeste 24 Sudeste 0 -- -- 51
2020-08-02 10:00:00 23.3 17 Sudeste 23 Sur 0 -- -- 54
2020-08-02 09:00:00 22.1 12 Sur 18 Sudoeste 0 -- -- 59
2020-08-02 08:00:00 19.6 10 Sudoeste 17 Sudoeste 0 -- -- 67
2020-08-02 07:00:00 17.7 14 Sudoeste 17 Sudoeste 0 -- -- 69
2020-08-02 06:00:00 18.2 14 Sudoeste 18 Sudoeste 0 -- -- 64
2020-08-02 05:00:00 18.6 14 Sudoeste 17 Sudoeste 0 -- -- 60
2020-08-02 04:00:00 19.3 13 Sudoeste 16 Sudoeste 0 -- -- 57
2020-08-02 03:00:00 19.7 12 Sudoeste 16 Sudoeste 0 -- -- 58
2020-08-02 02:00:00 19.8 12 Sudoeste 15 Sudoeste 0 -- -- 63
2020-08-02 01:00:00 17.1 4 Sudoeste 12 Sudoeste 0 -- -- 72
2020-08-02 00:00:00 18.1 7 Sudoeste 20 Noroeste 0 -- -- 70
2020-08-01 23:00:00 20.1 16 Noroeste 20 Noroeste 0 -- -- 64
2020-08-01 22:00:00 21.7 11 Noroeste 17 Noroeste 0 -- -- 57
2020-08-01 21:00:00 23.1 7 Noroeste 16 Norte 0 -- -- 55
2020-08-01 20:00:00 26.9 11 Norte 26 Nordeste 0 -- -- 47
2020-08-01 19:00:00 29 15 Norte 39 Oeste 0 -- -- 42
2020-08-01 18:00:00 31.1 21 Oeste 45 Sudoeste 0 -- -- 14
2020-08-01 17:00:00 32.1 25 Sudoeste 52 Sudoeste 0 -- -- 13
2020-08-01 16:00:00 32.1 23 Sur 50 Sur 0 -- -- 17
2020-08-01 15:00:00 31.1 29 Oeste 55 Sudoeste 0 -- -- 17
2020-08-01 14:00:00 30.9 22 Sudoeste 49 Sudoeste 0 -- -- 22
2020-08-01 13:00:00 31 27 Sudoeste 53 Oeste 0 -- -- 20
2020-08-01 12:00:00 30.3 21 Sudoeste 36 Sudoeste 0 -- -- 25
2020-08-01 11:00:00 29.4 20 Sur 37 Sudoeste 0 -- -- 25
2020-08-01 10:00:00 28.4 19 Sudoeste 29 Sudoeste 0 -- -- 25
2020-08-01 09:00:00 26.4 15 Sudoeste 22 Oeste 0 -- -- 26
2020-08-01 08:00:00 22.5 18 Oeste 22 Oeste 0 -- -- 34
2020-08-01 07:00:00 21.2 14 Sudoeste 22 Sudoeste 0 -- -- 39
2020-08-01 06:00:00 21.2 19 Sudoeste 23 Sudoeste 0 -- -- 42
2020-08-01 05:00:00 21.5 18 Sudoeste 19 Sudoeste 0 -- -- 36
2020-08-01 04:00:00 21.7 15 Sudoeste 19 Sudoeste 0 -- -- 37
2020-08-01 03:00:00 21.4 15 Sudoeste 20 Sudoeste 0 -- -- 43
2020-08-01 02:00:00 19.5 17 Sudoeste 20 Sudoeste 0 -- -- 59
2020-08-01 01:00:00 19.3 16 Sudoeste 19 Sudoeste 0.2 -- -- 61
2020-08-01 00:00:00 19.3 14 Sudoeste 16 Sudoeste 0 -- -- 62
2020-07-31 23:00:00 20.2 10 Sudoeste 13 Sudoeste 0 -- -- 62
2020-07-31 22:00:00 19.7 7 Sur 11 Sudoeste 0 -- -- 68
2020-07-31 21:00:00 19.9 6 Sudoeste 20 Nordeste 0.6 -- -- 82
2020-07-31 20:00:00 19.1 13 Este 40 Norte 4.8 -- -- 85
2020-07-31 19:00:00 24.3 24 Norte 43 Norte 0 -- -- 62
2020-07-31 18:00:00 25.7 10 Este 40 Este 0 -- -- 57
2020-07-31 17:00:00 30 22 Sudeste 33 Sudeste 0 -- -- 42
2020-07-31 16:00:00 31.1 22 Sudeste 39 Sudeste 0 -- -- 37
2020-07-31 15:00:00 31.6 16 Sudeste 32 Sudeste 0 -- -- 31
2020-07-31 14:00:00 30.8 10 Sur 46 Sur 0 -- -- 30
2020-07-31 13:00:00 29.4 18 Sudeste 33 Sudeste 0 -- -- 32
2020-07-31 12:00:00 29.2 14 Sudeste 29 Sudeste 0 -- -- 32
2020-07-31 11:00:00 27.9 16 Sur 30 Sudeste 0 -- -- 32
2020-07-31 10:00:00 26.3 12 Sur 19 Sur 0 -- -- 34
2020-07-31 09:00:00 23.6 4 Nordeste 15 Nordeste 0 -- -- 39
2020-07-31 08:00:00 19.6 4 Nordeste 8 Sudeste 0 -- -- 49
2020-07-31 07:00:00 17.1 0 Calma 8 Sudeste 0 -- -- 50
2020-07-31 06:00:00 20.4 6 Sudeste 26 Sur 0 -- -- 38
2020-07-31 05:00:00 22.5 15 Sudoeste 28 Sudoeste 0 -- -- 32
2020-07-31 04:00:00 21.9 15 Sudoeste 41 Sur 0 -- -- 39
2020-07-31 03:00:00 21.5 24 Sudoeste 45 Sudoeste 0 -- -- 42
2020-07-31 02:00:00 20.4 8 Sudeste 26 Sur 0 -- -- 41
2020-07-31 01:00:00 23 14 Sudoeste 23 Sudoeste 0 -- -- 30
2020-07-31 00:00:00 25.7 13 Sur 32 Sudoeste 0 -- -- 26
2020-07-30 23:00:00 23 28 Sudoeste 71 Sudoeste 0 -- -- 35
2020-07-30 22:00:00 22.2 21 Sur 37 Sur 0 -- -- 49
2020-07-30 21:00:00 23.1 13 Sur 21 Sur 0 -- -- 44
2020-07-30 20:00:00 24.9 15 Este 24 Nordeste 0 -- -- 46
2020-07-30 19:00:00 27.1 17 Este 25 Este 0 -- -- 44
2020-07-30 18:00:00 29.2 15 Este 36 Este 0 -- -- 38
2020-07-30 17:00:00 29.8 16 Este 35 Sur 0 -- -- 38
2020-07-30 16:00:00 29.7 22 Sudeste 34 Este 0 -- -- 30
2020-07-30 15:00:00 29.7 15 Sudeste 35 Este 0 -- -- 29
2020-07-30 14:00:00 29.9 17 Este 34 Este 0 -- -- 35
2020-07-30 13:00:00 29.1 18 Este 29 Este 0 -- -- 37
2020-07-30 12:00:00 29.9 14 Este 21 Este 0 -- -- 33
2020-07-30 11:00:00 27.9 13 Este 25 Sudeste 0 -- -- 34
2020-07-30 10:00:00 27.8 19 Sur 27 Sudeste 0 -- -- 30
2020-07-30 09:00:00 25.7 12 Sudoeste 19 Sudoeste 0 -- -- 34
2020-07-30 08:00:00 22.6 17 Sudoeste 22 Sudoeste 0 -- -- 29
2020-07-30 07:00:00 19.3 19 Sudoeste 23 Sudoeste 0 -- -- 36
2020-07-30 06:00:00 19.4 12 Sudoeste 19 Sudoeste 0 -- -- 43
2020-07-30 05:00:00 18.5 15 Sudoeste 20 Sudoeste 0 -- -- 50
2020-07-30 04:00:00 18.4 10 Sur 16 Sur 0 -- -- 52
2020-07-30 03:00:00 18 12 Sudoeste 13 Sudoeste 0 -- -- 54
2020-07-30 02:00:00 17.9 12 Sudoeste 16 Sudoeste 0 -- -- 53
2020-07-30 01:00:00 17.7 12 Sudoeste 18 Sudoeste 0 -- -- 54
2020-07-30 00:00:00 17.8 10 Sudoeste 19 Sur 0 -- -- 55
2020-07-29 23:00:00 18.3 8 Sur 13 Sur 0 -- -- 53
2020-07-29 22:00:00 18.7 8 Sur 12 Sur 0 -- -- 57
2020-07-29 21:00:00 20.6 9 Sur 14 Sur 0 -- -- 65
2020-07-29 20:00:00 23.4 9 Sur 18 Sudeste 0 -- -- 57
2020-07-29 19:00:00 25.1 10 Sudeste 23 Este 0 -- -- 57
2020-07-29 18:00:00 26.3 12 Sudeste 26 Sudeste 0 -- -- 50
2020-07-29 17:00:00 26.7 17 Sudeste 33 Sudeste 0 -- -- 47
2020-07-29 16:00:00 27.1 15 Sur 31 Sudeste 0 -- -- 42
2020-07-29 15:00:00 26.6 18 Sudeste 32 Sudeste 0 -- -- 39
2020-07-29 14:00:00 26.5 19 Sudeste 34 Este 0 -- -- 35
2020-07-29 13:00:00 26.2 15 Este 28 Sudeste 0 -- -- 39
2020-07-29 12:00:00 26.3 16 Este 26 Este 0 -- -- 35
2020-07-29 11:00:00 24.6 13 Este 19 Nordeste 0 -- -- 36
2020-07-29 10:00:00 23 8 Este 15 Este 0 -- -- 36
2020-07-29 09:00:00 21.5 0 Calma 8 Este 0 -- -- 35
2020-07-29 08:00:00 18.6 3 Sudoeste 12 Sudoeste 0 -- -- 43
2020-07-29 07:00:00 15.1 8 Sudoeste 12 Sudoeste 0 -- -- 54
2020-07-29 06:00:00 16.3 0 Calma 10 Sudoeste 0 -- -- 56
2020-07-29 05:00:00 15.8 7 Sudoeste 10 Sudoeste 0 -- -- 57
2020-07-29 04:00:00 16.1 5 Sudoeste 10 Sudoeste 0 -- -- 57
2020-07-29 03:00:00 16.1 5 Sudoeste 10 Sudoeste 0 -- -- 57
2020-07-29 02:00:00 17.2 5 Sur 9 Sudoeste 0 -- -- 54
2020-07-29 01:00:00 16.4 7 Sudoeste 10 Sur 0 -- -- 56
2020-07-29 00:00:00 18.6 6 Sur 15 Sur 0 -- -- 50
2020-07-28 23:00:00 19.4 8 Sur 13 Sur 0 -- -- 48
2020-07-28 22:00:00 20.7 9 Sur 20 Sudeste 0 -- -- 43
2020-07-28 21:00:00 21.7 13 Sur 25 Sur 0 -- -- 41
2020-07-28 20:00:00 23.9 18 Sudeste 25 Sur 0 -- -- 39
2020-07-28 19:00:00 25.7 18 Sudeste 36 Sudeste 0 -- -- 38
2020-07-28 18:00:00 26.5 23 Sudeste 41 Sudeste 0 -- -- 36
2020-07-28 17:00:00 27.6 21 Sudeste 40 Sudeste 0 -- -- 34
2020-07-28 16:00:00 28 23 Sudeste 44 Sudeste 0 -- -- 37
2020-07-28 15:00:00 28.6 24 Sudeste 38 Sudeste 0 -- -- 31
2020-07-28 14:00:00 28.4 23 Sudeste 38 Sudeste 0 -- -- 29
2020-07-28 13:00:00 27.9 23 Sudeste 37 Sudeste 0 -- -- 30
2020-07-28 12:00:00 27.2 21 Sur 32 Sudeste 0 -- -- 31
2020-07-28 11:00:00 26.7 18 Sudeste 28 Sudeste 0 -- -- 35
2020-07-28 10:00:00 25.3 14 Sudeste 26 Sur 0 -- -- 35
2020-07-28 09:00:00 23.4 17 Sur 27 Sur 0 -- -- 36
2020-07-28 08:00:00 22.4 15 Sur 30 Sur 0 -- -- 36
2020-07-28 07:00:00 22.2 21 Sudoeste 33 Sudoeste 0 -- -- 34
2020-07-28 06:00:00 22.2 22 Sudoeste 37 Sudoeste 0 -- -- 35
2020-07-28 05:00:00 23.1 26 Sudoeste 44 Sudoeste 0 -- -- 30
2020-07-28 04:00:00 23.1 24 Sudoeste 39 Sur 0 -- -- 31
2020-07-28 03:00:00 23.3 21 Sudoeste 35 Sur 0 -- -- 36
2020-07-28 02:00:00 22.6 18 Sudoeste 32 Sudoeste 0 -- -- 44
2020-07-28 01:00:00 22 11 Sudoeste 19 Sur 0 -- -- 42
2020-07-28 00:00:00 21.7 11 Sur 19 Sur 0 -- -- 48
2020-07-27 23:00:00 22.2 13 Sudoeste 21 Sur 0 -- -- 51
2020-07-27 22:00:00 22.8 11 Sur 19 Sur 0 -- -- 52
2020-07-27 21:00:00 23.7 10 Sur 25 Sur 0 -- -- 52
2020-07-27 20:00:00 26.1 16 Sur 26 Sudeste 0 -- -- 47
2020-07-27 19:00:00 28.2 17 Sudeste 34 Sudeste 0 -- -- 45
2020-07-27 18:00:00 29.7 19 Sudeste 35 Sudeste 0 -- -- 42
2020-07-27 17:00:00 31 18 Sur 34 Sudeste 0 -- -- 37
2020-07-27 16:00:00 31.4 19 Sudeste 44 Sur 0 -- -- 33
2020-07-27 15:00:00 31.1 21 Sur 41 Sur 0 -- -- 29
2020-07-27 14:00:00 30.9 28 Sur 47 Sur 0 -- -- 29
2020-07-27 13:00:00 29.6 27 Sur 43 Sur 0 -- -- 29
2020-07-27 12:00:00 29.1 25 Sur 42 Sur 0 -- -- 29
2020-07-27 09:00:00 25.6 24 Sudoeste 45 Sur 0 -- -- 31
2020-07-27 08:00:00 23.4 26 Sudoeste 40 Sudoeste 0 -- -- 32
2020-07-27 07:00:00 21.8 22 Sudoeste 32 Sudoeste 0 -- -- 35
2020-07-27 06:00:00 20.7 16 Sudoeste 26 Sudoeste 0 -- -- 40
2020-07-27 05:00:00 21 15 Sudoeste 24 Sudoeste 0 -- -- 42
2020-07-27 04:00:00 20.1 16 Sudoeste 20 Sudoeste 0 -- -- 47
2020-07-27 03:00:00 20.8 15 Sudoeste 24 Sudoeste 0 -- -- 47
2020-07-27 02:00:00 20.4 14 Sudoeste 23 Sudoeste 0 -- -- 54
2020-07-27 01:00:00 20.4 15 Sudoeste 22 Sudoeste 0 -- -- 60
2020-07-27 00:00:00 20.7 17 Sudoeste 21 Sudoeste 0 -- -- 59
2020-07-26 23:00:00 19.7 14 Sudoeste 16 Sudoeste 0 -- -- 63
2020-07-26 22:00:00 19.4 5 Sur 8 Sur 0 -- -- 74
2020-07-26 21:00:00 21.8 3 Sudeste 8 Este 0 -- -- 72
2020-07-26 20:00:00 24.1 4 Este 18 Nordeste 0 -- -- 64
2020-07-26 19:00:00 25 8 Este 24 Este 0 -- -- 61
2020-07-26 18:00:00 25.7 17 Nordeste 37 Nordeste 0 -- -- 58
2020-07-26 17:00:00 27.4 23 Este 33 Este 0 -- -- 51
2020-07-26 16:00:00 27.5 18 Nordeste 36 Nordeste 0 -- -- 49
2020-07-26 15:00:00 28.2 17 Nordeste 27 Este 0 -- -- 40
2020-07-26 14:00:00 28 14 Este 32 Sudeste 0 -- -- 37
2020-07-26 13:00:00 28.6 16 Este 25 Este 0 -- -- 40
2020-07-26 12:00:00 27 11 Este 24 Este 0 -- -- 48
2020-07-26 11:00:00 26.6 10 Este 18 Este 0 -- -- 47
2020-07-26 10:00:00 24.6 7 Este 14 Este 0 -- -- 53
2020-07-26 09:00:00 22.7 8 Sudeste 19 Oeste 0 -- -- 55
2020-07-26 08:00:00 22.3 12 Sudoeste 17 Oeste 0 -- -- 54
2020-07-26 07:00:00 19.9 12 Sudoeste 15 Sudoeste 0 -- -- 60
2020-07-26 06:00:00 19.4 13 Sudoeste 15 Oeste 0 -- -- 61
2020-07-26 05:00:00 19.4 12 Sudoeste 22 Oeste 0 -- -- 61
2020-07-26 04:00:00 20 16 Oeste 22 Oeste 0 -- -- 59
2020-07-26 03:00:00 20.1 17 Oeste 24 Oeste 0 -- -- 59
2020-07-26 02:00:00 20 18 Sudoeste 24 Sudoeste 0 -- -- 62
2020-07-26 01:00:00 19.8 15 Sudoeste 23 Sudoeste 0 -- -- 66
2020-07-26 00:00:00 19.8 17 Sudoeste 23 Sudoeste 0 -- -- 70
2020-07-25 23:00:00 19.7 14 Sudoeste 20 Sudoeste 0 -- -- 73
2020-07-25 22:00:00 18.2 8 Sur 14 Sudoeste 0 -- -- 83
2020-07-25 21:00:00 19.5 2 Norte 13 Nordeste 0 -- -- 81
2020-07-25 20:00:00 21.9 10 Sudeste 19 Este 0 -- -- 70
2020-07-25 19:00:00 24.2 12 Sudeste 30 Este 0 -- -- 63
2020-07-25 18:00:00 25 15 Sudeste 35 Este 0 -- -- 60
2020-07-25 17:00:00 26.2 19 Este 36 Este 0 -- -- 55
2020-07-25 16:00:00 26.5 10 Este 31 Sur 0 -- -- 48
2020-07-25 15:00:00 27.2 19 Sudeste 35 Sur 0 -- -- 40
2020-07-25 14:00:00 26.6 23 Sur 34 Sur 0 -- -- 42
2020-07-25 13:00:00 25 21 Sur 31 Sur 0 -- -- 46
2020-07-25 12:00:00 22.9 19 Sudeste 27 Sudeste 0 -- -- 50
2020-07-25 11:00:00 21.7 14 Sudeste 24 Sudeste 0 -- -- 54
2020-07-25 10:00:00 20.7 13 Sur 21 Sur 0 -- -- 52
2020-07-25 09:00:00 18.4 4 Sudeste 8 Sudoeste 0 -- -- 63
2020-07-25 08:00:00 16.5 3 Sur 5 Sudeste 0 -- -- 66
2020-07-25 07:00:00 12.4 5 Sudoeste 9 Sudoeste 0 -- -- 81
2020-07-25 06:00:00 12.6 3 Sur 9 Sudoeste 0 -- -- 83
2020-07-25 05:00:00 13.8 6 Sudoeste 10 Sudoeste 0 -- -- 80
2020-07-25 04:00:00 14.5 4 Oeste 8 Sudoeste 0 -- -- 76
2020-07-25 03:00:00 14.3 4 Oeste 7 Oeste 0 -- -- 78
2020-07-25 02:00:00 16 7 Sudoeste 9 Sudoeste 0 -- -- 72
2020-07-25 01:00:00 16.8 5 Oeste 9 Oeste 0 -- -- 72
2020-07-25 00:00:00 17.3 4 Oeste 9 Sudoeste 0 -- -- 69
2020-07-24 23:00:00 16.9 5 Oeste 8 Sudoeste 0 -- -- 72
2020-07-24 22:00:00 16.8 5 Oeste 7 Este 0 -- -- 70
2020-07-24 21:00:00 20.4 5 Nordeste 19 Nordeste 0 -- -- 59
2020-07-24 20:00:00 23.1 10 Nordeste 19 Este 0 -- -- 51
2020-07-24 19:00:00 23.9 5 Este 17 Este 0 -- -- 48
2020-07-24 18:00:00 23.9 8 Nordeste 22 Nordeste 0 -- -- 49
2020-07-24 17:00:00 23.6 8 Este 27 Este 0 -- -- 48
2020-07-24 16:00:00 23.6 12 Este 30 Nordeste 0 -- -- 48
2020-07-24 15:00:00 25.3 17 Nordeste 32 Este 0 -- -- 46
2020-07-24 14:00:00 26 14 Este 30 Este 0 -- -- 44
2020-07-24 13:00:00 25.3 18 Este 31 Este 0.2 -- -- 44
2020-07-24 12:00:00 23.6 7 Este 18 Sudeste 0 -- -- 39
2020-07-24 11:00:00 19.7 7 Sudeste 21 Norte 0.2 -- -- 51
2020-07-24 10:00:00 22.2 8 Sudeste 18 Sudeste 0 -- -- 28
2020-07-24 09:00:00 19.9 5 Sudeste 9 Sudeste 0 -- -- 48
2020-07-24 08:00:00 17.8 4 Nordeste 9 Sudoeste 0 -- -- 58
2020-07-24 07:00:00 15.9 6 Oeste 15 Noroeste 0 -- -- 43
2020-07-24 06:00:00 16.2 5 Oeste 9 Oeste 0 -- -- 37
2020-07-24 05:00:00 15.3 0 Calma 12 Sudoeste 0 -- -- 41
2020-07-24 04:00:00 15.2 10 Sudoeste 12 Sudoeste 0 -- -- 44
2020-07-24 03:00:00 18.2 6 Sur 17 Sudoeste 0 -- -- 42
2020-07-24 02:00:00 17.9 14 Sudoeste 17 Sudoeste 0 -- -- 37
2020-07-24 01:00:00 17.9 10 Sudoeste 15 Sudoeste 0 -- -- 38
2020-07-24 00:00:00 17.3 10 Sudoeste 13 Sudoeste 0 -- -- 42
2020-07-23 23:00:00 18 9 Sudoeste 13 Sudoeste 0 -- -- 40
2020-07-23 22:00:00 17.7 9 Sudoeste 12 Sudoeste 0 -- -- 43
2020-07-23 21:00:00 20.5 9 Sur 17 Sur 0 -- -- 39
2020-07-23 20:00:00 23.1 11 Sur 22 Sur 0 -- -- 39
2020-07-23 19:00:00 24.6 14 Sudeste 24 Este 0 -- -- 36
2020-07-23 18:00:00 25.9 15 Este 30 Nordeste 0 -- -- 34
2020-07-23 17:00:00 26.2 11 Este 30 Sudeste 0 -- -- 31
2020-07-23 16:00:00 27.1 17 Este 28 Este 0 -- -- 29
2020-07-23 15:00:00 26.8 9 Este 26 Nordeste 0 -- -- 26
2020-07-23 14:00:00 26.2 15 Este 28 Este 0 -- -- 27
2020-07-23 13:00:00 25.7 9 Nordeste 23 Este 0 -- -- 25
2020-07-23 12:00:00 24.9 9 Nordeste 23 Nordeste 0 -- -- 26
2020-07-23 11:00:00 24 14 Este 22 Este 0 -- -- 24
2020-07-23 10:00:00 23.2 9 Norte 18 Norte 0 -- -- 29
2020-07-23 09:00:00 20.6 13 Noroeste 22 Noroeste 0 -- -- 35
2020-07-23 08:00:00 18.4 16 Noroeste 24 Oeste 0 -- -- 37
2020-07-23 07:00:00 17.4 18 Oeste 22 Oeste 0 -- -- 34
2020-07-23 06:00:00 15.4 6 Oeste 15 Oeste 0 -- -- 36
2020-07-23 05:00:00 15.1 5 Oeste 17 Sudoeste 0 -- -- 37
2020-07-23 04:00:00 15.8 12 Sudoeste 21 Sudoeste 0 -- -- 34
2020-07-23 03:00:00 16 15 Sudoeste 18 Sudoeste 0 -- -- 32
2020-07-23 02:00:00 16.3 14 Sudoeste 17 Sudoeste 0 -- -- 35
2020-07-23 01:00:00 16.4 15 Sudoeste 18 Sudoeste 0 -- -- 35
2020-07-23 00:00:00 16.8 14 Sudoeste 17 Sudoeste 0 -- -- 35
2020-07-22 23:00:00 16.6 13 Sudoeste 16 Sudoeste 0 -- -- 35
2020-07-22 22:00:00 17.3 10 Sudoeste 17 Sur 0 -- -- 34
2020-07-22 21:00:00 18.6 10 Sur 19 Sur 0 -- -- 34
2020-07-22 20:00:00 20.5 11 Sur 22 Sudeste 0 -- -- 40
2020-07-22 19:00:00 21.6 12 Sudeste 22 Sudeste 0 -- -- 33
2020-07-22 18:00:00 21.6 8 Sudeste 19 Este 0 -- -- 34
2020-07-22 17:00:00 21.5 7 Este 34 Este 0 -- -- 37
2020-07-22 16:00:00 22.1 9 Este 37 Sur 0 -- -- 36
2020-07-22 15:00:00 21.2 16 Este 25 Este 0 -- -- 33
2020-07-22 14:00:00 21.5 14 Este 26 Nordeste 0 -- -- 31
2020-07-22 13:00:00 23.1 9 Este 21 Este 0 -- -- 23
2020-07-22 12:00:00 21.4 8 Sudeste 22 Sur 0 -- -- 20
2020-07-22 11:00:00 21.4 3 Este 15 Sudoeste 0 -- -- 28
2020-07-22 10:00:00 16.6 12 Sudoeste 22 Sudoeste 0.4 -- -- 38
2020-07-22 09:00:00 20.9 4 Sudeste 9 Sur 0 -- -- 26
2020-07-22 08:00:00 19.3 2 Sur 5 Sur 0 -- -- 31
2020-07-22 07:00:00 16.5 3 Sur 9 Sudeste 0 -- -- 39
2020-07-22 06:00:00 15.8 8 Sudoeste 11 Sudoeste 0 -- -- 43
2020-07-22 05:00:00 15.1 6 Oeste 35 Sudoeste 0.2 -- -- 53
2020-07-22 04:00:00 17.4 15 Sudoeste 21 Sudoeste 0 -- -- 24
2020-07-22 03:00:00 17.1 5 Sur 15 Sur 0 -- -- 29
2020-07-22 02:00:00 19.1 10 Sur 17 Sur 0 -- -- 31
2020-07-22 01:00:00 19.1 8 Sur 13 Sur 0 -- -- 39
2020-07-22 00:00:00 18.6 10 Sudoeste 12 Sudoeste 0 -- -- 41
2020-07-21 23:00:00 18.5 6 Sudoeste 15 Sudoeste 0 -- -- 43
2020-07-21 22:00:00 17.9 9 Sudoeste 15 Sudoeste 0 -- -- 51
2020-07-21 21:00:00 19.6 5 Sudoeste 16 Sudeste 0 -- -- 51
2020-07-21 20:00:00 22.3 12 Este 24 Este 0 -- -- 48
2020-07-21 19:00:00 24.2 13 Este 26 Este 0 -- -- 46
2020-07-21 18:00:00 24.6 17 Sur 33 Este 0 -- -- 48
2020-07-21 17:00:00 25.7 21 Este 38 Sudeste 0 -- -- 51
2020-07-21 16:00:00 26.9 15 Sudeste 30 Sur 0 -- -- 39
2020-07-21 15:00:00 26.9 17 Sudeste 34 Este 0 -- -- 43
2020-07-21 14:00:00 27.8 14 Sudeste 25 Este 0 -- -- 34
2020-07-21 13:00:00 27 12 Sur 22 Sur 0 -- -- 37
2020-07-21 12:00:00 25.8 13 Sur 23 Sur 0 -- -- 41
2020-07-21 11:00:00 24.3 14 Sur 22 Sur 0 -- -- 48
2020-07-21 10:00:00 22.7 12 Sudeste 20 Sudeste 0 -- -- 55
2020-07-21 09:00:00 20.2 8 Sudeste 12 Sudeste 0 -- -- 62
2020-07-21 08:00:00 19.1 4 Sudoeste 14 Sudoeste 0 -- -- 60
2020-07-21 07:00:00 16.7 13 Sudoeste 19 Sudoeste 0 -- -- 72
2020-07-21 06:00:00 16.6 12 Sudoeste 22 Sudoeste 0 -- -- 78
2020-07-21 05:00:00 16.7 10 Sudoeste 15 Sudoeste 0 -- -- 80
2020-07-21 04:00:00 16.5 11 Sudoeste 15 Sudoeste 0 -- -- 84
2020-07-21 03:00:00 16.9 7 Sur 18 Sudoeste 0 -- -- 72
2020-07-21 02:00:00 16.8 11 Sudoeste 18 Sudoeste 0 -- -- 72
2020-07-21 01:00:00 17.4 10 Sur 17 Sudoeste 0 -- -- 67
2020-07-21 00:00:00 17.2 10 Sudoeste 13 Sur 0 -- -- 75
2020-07-20 23:00:00 17 3 Sur 8 Sur 0 -- -- 90
2020-07-20 22:00:00 18.7 3 Sudoeste 30 Oeste 0 -- -- 63
2020-07-20 21:00:00 21.1 15 Oeste 19 Oeste 0 -- -- 64
2020-07-20 20:00:00 21.3 10 Sur 19 Sudeste 0 -- -- 75
2020-07-20 19:00:00 22.4 15 Sur 24 Sudeste 0 -- -- 70
2020-07-20 18:00:00 24.1 20 Sur 30 Sur 0 -- -- 59
2020-07-20 17:00:00 25.7 18 Sur 32 Sudeste 0 -- -- 50
2020-07-20 16:00:00 26.2 19 Sudeste 32 Sudeste 0 -- -- 47
2020-07-20 15:00:00 25.7 15 Sudeste 32 Sur 0 -- -- 47
2020-07-20 14:00:00 25.8 15 Sur 31 Sudeste 0 -- -- 44
2020-07-20 13:00:00 25.1 18 Sudeste 27 Sudeste 0 -- -- 43
2020-07-20 12:00:00 23.8 15 Sur 23 Sur 0 -- -- 52
2020-07-20 11:00:00 21.2 14 Sur 20 Sur 0 -- -- 60
2020-07-20 10:00:00 20 10 Sudoeste 16 Sur 0.2 -- -- 64
2020-07-20 09:00:00 20.2 7 Sudoeste 12 Sur 0 -- -- 56
2020-07-20 08:00:00 16.8 5 Sudoeste 12 Sudoeste 0 -- -- 71
2020-07-20 07:00:00 17.4 12 Sudoeste 13 Sudoeste 0 -- -- 69
2020-07-20 06:00:00 16.8 2 Noroeste 18 Sudoeste 0 -- -- 83
2020-07-20 05:00:00 16.5 7 Sudoeste 14 Sur 0 -- -- 72
2020-07-20 04:00:00 14.8 5 Oeste 9 Norte 0 -- -- 85
2020-07-20 03:00:00 15.5 2 Noroeste 8 Norte 0 -- -- 89
2020-07-20 02:00:00 16.4 5 Sudoeste 18 Sudoeste 0 -- -- 84
2020-07-20 01:00:00 16.3 12 Sudoeste 17 Sur 0 -- -- 93
2020-07-20 00:00:00 17.5 9 Sur 15 Sur 0 -- -- 87
2020-07-19 23:00:00 17.5 8 Sudoeste 14 Sur 0 -- -- 94
2020-07-19 22:00:00 17.4 0 Calma 7 Norte 0 -- -- 99
2020-07-19 21:00:00 18.1 3 Sudeste 14 Nordeste 0.2 -- -- 98
2020-07-19 20:00:00 19.8 0 Calma 11 Sudoeste 1.4 -- -- 97
2020-07-19 19:00:00 20.3 3 Norte 10 Norte 0.4 -- -- 92
2020-07-19 18:00:00 19.8 7 Este 23 Este 4 -- -- 95
2020-07-19 17:00:00 21.5 12 Nordeste 30 Nordeste 0 -- -- 79
2020-07-19 16:00:00 23.2 20 Este 31 Este 0 -- -- 72
2020-07-19 15:00:00 24.2 15 Este 38 Este 0 -- -- 64
2020-07-19 14:00:00 25.5 26 Este 36 Este 0 -- -- 52
2020-07-19 13:00:00 26.5 19 Sur 33 Sur 0 -- -- 44
2020-07-19 12:00:00 25.5 24 Sudeste 33 Sur 0 -- -- 47
2020-07-19 11:00:00 24 15 Sur 23 Sudeste 0 -- -- 52
2020-07-19 10:00:00 22.5 16 Sudoeste 24 Sudoeste 0 -- -- 59
2020-07-19 09:00:00 20 19 Sudoeste 29 Sudoeste 0 -- -- 69
2020-07-19 08:00:00 17.4 22 Sudoeste 35 Sudoeste 0 -- -- 73
2020-07-19 07:00:00 15.4 22 Sudoeste 31 Sudoeste 0 -- -- 80
2020-07-19 06:00:00 15.1 8 Sudoeste 24 Sudoeste 0 -- -- 87
2020-07-19 05:00:00 15.5 14 Sudoeste 22 Sudoeste 0 -- -- 87
2020-07-19 04:00:00 15.8 21 Sudoeste 28 Sudoeste 0 -- -- 89
2020-07-19 03:00:00 15.8 12 Sudoeste 17 Sudoeste 0 -- -- 88
2020-07-19 02:00:00 16 13 Sudoeste 22 Sudoeste 0 -- -- 85
2020-07-19 01:00:00 16.2 7 Sudoeste 16 Sudoeste 0 -- -- 89
2020-07-19 00:00:00 16.4 7 Sudoeste 9 Sudoeste 0 -- -- 89
2020-07-18 23:00:00 16.6 3 Sur 8 Sudoeste 0 -- -- 91
2020-07-18 22:00:00 17.1 4 Sudoeste 9 Sur 0 -- -- 88
2020-07-18 21:00:00 19.2 6 Sur 12 Este 0 -- -- 83
2020-07-18 20:00:00 21.7 9 Sudeste 18 Este 0 -- -- 73
2020-07-18 19:00:00 21.7 11 Este 21 Este 0 -- -- 75
2020-07-18 18:00:00 22.9 6 Sudeste 24 Nordeste 0 -- -- 68
2020-07-18 17:00:00 25.2 9 Nordeste 24 Nordeste 0 -- -- 60
2020-07-18 16:00:00 23.5 10 Este 27 Este 0 -- -- 65
2020-07-18 15:00:00 24.5 12 Este 24 Este 0 -- -- 59
2020-07-18 14:00:00 23.8 13 Sudeste 25 Nordeste 0 -- -- 55
2020-07-18 13:00:00 22.1 10 Sur 32 Sudeste 0 -- -- 54
2020-07-18 12:00:00 21.6 18 Sur 31 Sur 0 -- -- 56
2020-07-18 11:00:00 20.3 19 Sudeste 34 Sudeste 0 -- -- 60
2020-07-18 10:00:00 18.9 15 Sur 26 Sudeste 0 -- -- 66
2020-07-18 09:00:00 17.2 14 Sudoeste 24 Sudoeste 0 -- -- 76
2020-07-18 08:00:00 14.5 17 Sudoeste 24 Sudoeste 0 -- -- 89
2020-07-18 07:00:00 12.8 4 Sur 14 Sur 0 -- -- 96
2020-07-18 06:00:00 13.5 6 Sudoeste 13 Sudoeste 0 -- -- 94
2020-07-18 05:00:00 12.4 4 Oeste 8 Oeste 0 -- -- 91
2020-07-18 04:00:00 12.1 6 Oeste 14 Sudoeste 0 -- -- 89
2020-07-18 03:00:00 12.5 12 Sudoeste 14 Sudoeste 0 -- -- 70
2020-07-18 02:00:00 11.4 8 Sudoeste 12 Sudoeste 0 -- -- 74
2020-07-18 01:00:00 11.6 9 Sudoeste 13 Sudoeste 0 -- -- 75
2020-07-18 00:00:00 12.1 8 Sudoeste 10 Sudoeste 0 -- -- 70
2020-07-17 23:00:00 13.5 5 Oeste 14 Noroeste 0 -- -- 65
2020-07-17 22:00:00 16.3 10 Noroeste 17 Noroeste 0 -- -- 54
2020-07-17 21:00:00 18.2 11 Noroeste 20 Norte 0 -- -- 46
2020-07-17 20:00:00 21.2 14 Norte 28 Norte 0 -- -- 40
2020-07-17 19:00:00 22.2 13 Norte 21 Norte 0 -- -- 39
2020-07-17 18:00:00 21.9 13 Nordeste 24 Nordeste 0 -- -- 46
2020-07-17 17:00:00 23 11 Este 30 Noroeste 0 -- -- 50
2020-07-17 16:00:00 21.9 14 Este 24 Nordeste 0 -- -- 65
2020-07-17 15:00:00 22.9 7 Nordeste 20 Este 0 -- -- 55
2020-07-17 14:00:00 22.6 10 Este 24 Este 0 -- -- 62
2020-07-17 13:00:00 21.8 9 Sudeste 22 Este 0 -- -- 61
2020-07-17 12:00:00 20.2 10 Este 23 Nordeste 0 -- -- 64
2020-07-17 11:00:00 21.4 12 Nordeste 22 Sur 0 -- -- 62
2020-07-17 10:00:00 18.5 15 Sur 22 Sudeste 0 -- -- 74
2020-07-17 09:00:00 17.4 10 Sur 19 Sudoeste 0 -- -- 79
2020-07-17 08:00:00 15.9 10 Sudoeste 15 Sudoeste 0 -- -- 84
2020-07-17 07:00:00 12.7 11 Sudoeste 15 Sudoeste 0 -- -- 75
2020-07-17 06:00:00 12.6 9 Oeste 26 Oeste 0 -- -- 51
2020-07-17 05:00:00 13.6 2 Sudoeste 14 Sudoeste 0 -- -- 58
2020-07-17 04:00:00 14.2 12 Sudoeste 19 Oeste 0 -- -- 37
2020-07-17 03:00:00 13.8 13 Oeste 16 Oeste 0 -- -- 53
2020-07-17 02:00:00 13.1 4 Noroeste 18 Sudoeste 0 -- -- 64
2020-07-17 01:00:00 14.2 17 Oeste 20 Oeste 0 -- -- 62
2020-07-17 00:00:00 14.6 7 Oeste 15 Oeste 0 -- -- 64
2020-07-16 23:00:00 15.1 9 Oeste 19 Noroeste 0 -- -- 65
2020-07-16 22:00:00 17.5 9 Oeste 14 Noroeste 0 -- -- 58
2020-07-16 21:00:00 19.4 3 Noroeste 24 Norte 0 -- -- 54
2020-07-16 20:00:00 21.4 15 Norte 25 Norte 0 -- -- 51
2020-07-16 19:00:00 23.2 14 Norte 33 Norte 0 -- -- 48
2020-07-16 18:00:00 23.5 9 Nordeste 18 Nordeste 0 -- -- 49
2020-07-16 17:00:00 23.4 11 Este 22 Este 0 -- -- 54
2020-07-16 16:00:00 22.1 10 Este 22 Este 0 -- -- 67
2020-07-16 15:00:00 23.3 10 Este 22 Este 0 -- -- 63
2020-07-16 14:00:00 22.6 13 Este 25 Este 0 -- -- 65
2020-07-16 13:00:00 21.6 12 Este 23 Sudeste 0 -- -- 61
2020-07-16 12:00:00 21.3 9 Este 21 Este 0 -- -- 63
2020-07-16 11:00:00 19.8 11 Este 26 Sudoeste 0 -- -- 64
2020-07-16 10:00:00 18.3 17 Sur 25 Sur 0 -- -- 67
2020-07-16 09:00:00 17.1 5 Nordeste 9 Nordeste 0 -- -- 62
2020-07-16 08:00:00 13.4 3 Este 18 Oeste 0 -- -- 71
2020-07-16 07:00:00 10.8 14 Oeste 19 Oeste 0 -- -- 80
2020-07-16 06:00:00 10.9 9 Oeste 13 Oeste 0 -- -- 95
2020-07-16 05:00:00 10.4 4 Oeste 9 Sudoeste 0 -- -- 96
2020-07-16 04:00:00 11.7 5 Sudoeste 7 Sudoeste 0 -- -- 96
2020-07-16 03:00:00 12 4 Oeste 17 Oeste 0 -- -- 92
2020-07-16 02:00:00 11.8 10 Sudoeste 14 Oeste 0 -- -- 89
2020-07-16 01:00:00 11.5 5 Sur 9 Noroeste 0 -- -- 86
2020-07-16 00:00:00 13.2 4 Oeste 14 Sudoeste 0 -- -- 77
2020-07-15 23:00:00 13.6 6 Sur 19 Oeste 0 -- -- 75
2020-07-15 22:00:00 15.1 12 Noroeste 24 Noroeste 0 -- -- 69
2020-07-15 21:00:00 17.5 16 Noroeste 24 Noroeste 0 -- -- 59
2020-07-15 20:00:00 20.7 12 Nordeste 19 Nordeste 0 -- -- 53
2020-07-15 19:00:00 20.6 10 Este 22 Nordeste 0 -- -- 53
2020-07-15 18:00:00 22.5 13 Oeste 25 Sudoeste 0 -- -- 40
2020-07-15 17:00:00 20.7 6 Nordeste 20 Nordeste 0 -- -- 47
2020-07-15 16:00:00 20.2 9 Este 17 Nordeste 0 -- -- 53
2020-07-15 15:00:00 20.7 11 Este 21 Nordeste 0 -- -- 58
2020-07-15 14:00:00 19.4 9 Este 24 Este 0 -- -- 60
2020-07-15 13:00:00 20.1 9 Este 16 Este 0 -- -- 59
2020-07-15 12:00:00 18.3 6 Este 19 Este 0 -- -- 62
2020-07-15 11:00:00 18.7 9 Este 20 Sudeste 0 -- -- 62
2020-07-15 10:00:00 16.7 14 Sudeste 21 Sudeste 0 -- -- 62
2020-07-15 09:00:00 15.7 3 Este 9 Este 0 -- -- 74
2020-07-15 08:00:00 13.7 0 Calma 8 Oeste 0 -- -- 77
2020-07-15 07:00:00 9.6 6 Oeste 9 Sudoeste 0 -- -- 87
2020-07-15 06:00:00 9.7 5 Oeste 9 Sudoeste 0 -- -- 85
2020-07-15 05:00:00 11.1 5 Oeste 13 Oeste 0 -- -- 74
2020-07-15 04:00:00 10.9 5 Oeste 15 Oeste 0 -- -- 74
2020-07-15 03:00:00 10.4 6 Oeste 19 Noroeste 0 -- -- 79
2020-07-15 02:00:00 11 14 Noroeste 15 Oeste 0 -- -- 83
2020-07-15 01:00:00 11.9 11 Noroeste 15 Noroeste 0 -- -- 86
2020-07-15 00:00:00 13.5 11 Noroeste 17 Noroeste 0 -- -- 82
2020-07-14 23:00:00 12.9 5 Oeste 9 Sudoeste 0 -- -- 95
2020-07-14 22:00:00 13.6 3 Sudoeste 9 Noroeste 0 -- -- 94
2020-07-14 21:00:00 14.7 5 Oeste 7 Oeste 0.2 -- -- 88
2020-07-14 20:00:00 18.6 5 Sudoeste 16 Oeste 0 -- -- 71
2020-07-14 19:00:00 15.7 5 Sudeste 9 Sudeste 0 -- -- 87
2020-07-14 18:00:00 14.2 2 Sudeste 13 Este 0 -- -- 92
2020-07-14 17:00:00 14.2 7 Sudeste 17 Sur 0.4 -- -- 92
2020-07-14 16:00:00 14.3 2 Sur 13 Este 3.8 -- -- 95
2020-07-14 15:00:00 16.6 8 Norte 17 Nordeste 0 -- -- 84
2020-07-14 14:00:00 14.7 5 Sudeste 18 Nordeste 0 -- -- 87
2020-07-14 13:00:00 15.3 7 Este 23 Sudeste 0 -- -- 78
2020-07-14 12:00:00 18.7 16 Sudeste 25 Sur 0 -- -- 76
2020-07-14 11:00:00 17.8 14 Sur 20 Sur 0 -- -- 81
2020-07-14 10:00:00 17.7 14 Sudeste 21 Sudeste 0 -- -- 82
2020-07-14 09:00:00 17.3 6 Este 14 Nordeste 0 -- -- 82
2020-07-14 08:00:00 15.2 9 Norte 19 Oeste 0 -- -- 88
2020-07-14 07:00:00 13.3 3 Noroeste 9 Sur 0 -- -- 96
2020-07-14 06:00:00 13 2 Norte 6 Sudeste 0 -- -- 94
2020-07-14 05:00:00 13.1 3 Sudoeste 6 Oeste 0 -- -- 95
2020-07-14 04:00:00 13 0 Calma 9 Sudoeste 0.2 -- -- 87
2020-07-14 03:00:00 12.8 4 Oeste 22 Noroeste 0 -- -- 87
2020-07-14 02:00:00 13.8 18 Oeste 22 Oeste 0 -- -- 80
2020-07-14 01:00:00 13.8 10 Noroeste 14 Noroeste 0 -- -- 82
2020-07-14 00:00:00 15.1 6 Noroeste 19 Noroeste 0 -- -- 89
2020-07-13 23:00:00 16.3 4 Noroeste 10 Este 0 -- -- 93
2020-07-13 22:00:00 17 6 Sudeste 16 Este 0 -- -- 97
2020-07-13 21:00:00 18.5 4 Norte 12 Norte 0 -- -- 86
2020-07-13 20:00:00 20.1 8 Norte 12 Norte 0 -- -- 74
2020-07-13 19:00:00 19.8 3 Norte 8 Este 0 -- -- 76
2020-07-13 18:00:00 19.2 4 Sudeste 9 Noroeste 0.6 -- -- 73
2020-07-13 17:00:00 18.3 8 Noroeste 14 Nordeste 0.2 -- -- 79
2020-07-13 16:00:00 21.1 7 Norte 19 Norte 0 -- -- 74
2020-07-13 15:00:00 19 8 Norte 13 Norte 0.8 -- -- 82
2020-07-13 14:00:00 17.8 13 Nordeste 23 Este 1.6 -- -- 84
2020-07-13 13:00:00 20.9 15 Este 22 Nordeste 0 -- -- 67
2020-07-13 12:00:00 21.2 12 Nordeste 19 Nordeste 0 -- -- 64
2020-07-13 11:00:00 23 6 Sudeste 14 Nordeste 0 -- -- 45
2020-07-13 10:00:00 20.7 4 Sudeste 8 Sudeste 0 -- -- 52
2020-07-13 09:00:00 19 3 Nordeste 5 Este 0 -- -- 59
2020-07-13 08:00:00 16.6 2 Sudoeste 10 Sudoeste 0 -- -- 65
2020-07-13 07:00:00 14.2 4 Oeste 15 Oeste 0 -- -- 72
2020-07-13 06:00:00 16.8 11 Noroeste 21 Oeste 0 -- -- 59
2020-07-13 05:00:00 15.6 3 Sur 18 Oeste 0 -- -- 68
2020-07-13 04:00:00 16.3 16 Oeste 28 Oeste 0 -- -- 64
2020-07-13 03:00:00 16.3 15 Oeste 31 Oeste 0 -- -- 67
2020-07-13 02:00:00 16.2 16 Oeste 23 Oeste 0 -- -- 65
2020-07-13 01:00:00 16.1 12 Sudoeste 22 Oeste 0 -- -- 68
2020-07-13 00:00:00 14.9 7 Sudoeste 19 Sudoeste 0 -- -- 85
2020-07-12 23:00:00 15.6 9 Sudeste 31 Sudoeste 0 -- -- 77
2020-07-12 22:00:00 15.7 20 Sudoeste 42 Sudeste 0 -- -- 73
2020-07-12 21:00:00 16.5 18 Sudoeste 39 Sur 0 -- -- 78
2020-07-12 20:00:00 16.7 17 Sur 28 Sur 0 -- -- 83
2020-07-12 19:00:00 16.9 4 Sur 19 Sudeste 0 -- -- 93
2020-07-12 18:00:00 16.5 18 Sudeste 33 Sur 0.6 -- -- 94
2020-07-12 17:00:00 15.1 4 Sudoeste 43 Oeste 5.2 -- -- 90
2020-07-12 16:00:00 18.9 17 Sudeste 33 Este 0.8 -- -- 77
2020-07-12 15:00:00 23 17 Nordeste 35 Nordeste 0 -- -- 55
2020-07-12 14:00:00 24.3 18 Nordeste 31 Este 0 -- -- 51
2020-07-12 13:00:00 24.3 13 Sudeste 34 Sudeste 0 -- -- 41
2020-07-12 12:00:00 24 19 Sur 34 Sur 0 -- -- 37
2020-07-12 11:00:00 22.5 23 Sur 34 Sur 0 -- -- 41
2020-07-12 10:00:00 19.9 20 Sur 35 Sur 0 -- -- 47
2020-07-12 09:00:00 18.6 18 Sur 29 Sur 0 -- -- 49
2020-07-12 08:00:00 18.2 9 Sur 19 Sur 0 -- -- 50
2020-07-12 07:00:00 16.4 13 Sudoeste 22 Sur 0 -- -- 53
2020-07-12 06:00:00 16.9 14 Sudoeste 22 Sudoeste 0 -- -- 51
2020-07-12 05:00:00 16.1 13 Sudoeste 17 Sudoeste 0 -- -- 52
2020-07-12 04:00:00 16.3 11 Sudoeste 15 Sur 0 -- -- 51
2020-07-12 03:00:00 16.4 12 Sudoeste 17 Sur 0 -- -- 51
2020-07-12 02:00:00 16.3 9 Sudoeste 16 Sur 0 -- -- 51
2020-07-12 01:00:00 16.6 12 Sudoeste 16 Sudoeste 0 -- -- 51
2020-07-12 00:00:00 16.7 13 Sudoeste 15 Sudoeste 0 -- -- 54
2020-07-11 23:00:00 17.3 8 Sudoeste 17 Sudoeste 0 -- -- 55
2020-07-11 22:00:00 17.1 10 Sudoeste 14 Sudoeste 0 -- -- 65
2020-07-11 21:00:00 18.5 7 Sur 17 Sur 0 -- -- 75
2020-07-11 20:00:00 21 12 Sudeste 22 Sudeste 0 -- -- 59
2020-07-11 19:00:00 22 14 Sudeste 26 Sudeste 0 -- -- 59
2020-07-11 18:00:00 22.9 15 Sudeste 26 Sudeste 0 -- -- 61
2020-07-11 17:00:00 23.7 15 Este 32 Este 0 -- -- 59
2020-07-11 16:00:00 22.3 19 Este 35 Este 0 -- -- 63
2020-07-11 15:00:00 22.4 18 Este 32 Este 0 -- -- 63
2020-07-11 14:00:00 23.5 18 Sudeste 43 Este 0 -- -- 50
2020-07-11 13:00:00 23.3 17 Este 32 Este 0 -- -- 54
2020-07-11 12:00:00 23.6 9 Este 22 Este 0 -- -- 51
2020-07-11 11:00:00 22.4 13 Este 22 Este 0 -- -- 53
2020-07-11 10:00:00 21.9 10 Sur 20 Sudeste 0 -- -- 39
2020-07-11 09:00:00 20.3 6 Sudeste 13 Sudeste 0 -- -- 46
2020-07-11 08:00:00 18.6 9 Sudoeste 17 Sudoeste 0 -- -- 47
2020-07-11 07:00:00 15.8 14 Sudoeste 18 Sudoeste 0 -- -- 51
2020-07-11 06:00:00 14.5 12 Sudoeste 14 Sudoeste 0 -- -- 58
2020-07-11 05:00:00 13 11 Sudoeste 13 Sudoeste 0 -- -- 67
2020-07-11 04:00:00 13.7 6 Sudoeste 12 Sudoeste 0 -- -- 75
2020-07-11 03:00:00 15 7 Sudoeste 12 Sudoeste 0 -- -- 76
2020-07-11 02:00:00 14.5 5 Oeste 12 Noroeste 0 -- -- 78
2020-07-11 01:00:00 15.7 7 Oeste 12 Oeste 0 -- -- 71
2020-07-11 00:00:00 16.8 5 Oeste 10 Sudoeste 0 -- -- 65
2020-07-10 23:00:00 17.5 6 Sudoeste 9 Oeste 0 -- -- 73
2020-07-10 22:00:00 17.5 4 Sudeste 6 Sudoeste 0 -- -- 80
2020-07-10 21:00:00 18.2 3 Nordeste 13 Este 0 -- -- 77
2020-07-10 20:00:00 18.9 11 Este 24 Este 0 -- -- 75
2020-07-10 19:00:00 21.1 14 Este 22 Este 0 -- -- 59
2020-07-10 18:00:00 20.5 9 Este 21 Este 0 -- -- 59
2020-07-10 17:00:00 21.2 15 Este 24 Nordeste 0 -- -- 56
2020-07-10 16:00:00 22.1 16 Nordeste 31 Nordeste 0 -- -- 50
2020-07-10 15:00:00 21.5 20 Este 36 Este 0 -- -- 53
2020-07-10 14:00:00 24.2 15 Este 29 Este 0 -- -- 47
2020-07-10 13:00:00 23.3 13 Este 26 Nordeste 0 -- -- 49
2020-07-10 12:00:00 22.3 10 Este 23 Nordeste 0 -- -- 49
2020-07-10 11:00:00 20.6 7 Este 17 Este 0 -- -- 54
2020-07-10 10:00:00 20 7 Este 17 Nordeste 0 -- -- 55
2020-07-10 09:00:00 18.5 9 Norte 12 Norte 0 -- -- 63
2020-07-10 08:00:00 16.3 0 Calma 9 Oeste 0 -- -- 67
2020-07-10 07:00:00 12 6 Oeste 10 Oeste 0 -- -- 76
2020-07-10 06:00:00 12.8 3 Sudoeste 10 Sudoeste 0 -- -- 73
2020-07-10 05:00:00 13 8 Sudoeste 12 Sudoeste 0 -- -- 75
2020-07-10 04:00:00 13.9 7 Sudoeste 9 Sudoeste 0 -- -- 73
2020-07-10 03:00:00 13.3 3 Sur 12 Sudoeste 0 -- -- 81
2020-07-10 02:00:00 14.5 4 Oeste 9 Sudoeste 0 -- -- 90
2020-07-10 01:00:00 13.9 4 Sudoeste 9 Oeste 0 -- -- 82
2020-07-10 00:00:00 15.2 5 Sudoeste 9 Sudoeste 0 -- -- 75
2020-07-09 23:00:00 15.6 5 Oeste 12 Sudoeste 0 -- -- 69
2020-07-09 22:00:00 17.1 7 Oeste 10 Este 0 -- -- 84
2020-07-09 21:00:00 19.1 4 Este 19 Nordeste 0 -- -- 85
2020-07-09 20:00:00 21.1 13 Este 30 Nordeste 0 -- -- 75
2020-07-09 19:00:00 23.6 17 Nordeste 36 Nordeste 0 -- -- 48
2020-07-09 18:00:00 24.6 20 Este 31 Este 0 -- -- 47
2020-07-09 17:00:00 25.3 16 Este 28 Nordeste 0 -- -- 40
2020-07-09 16:00:00 25.3 11 Este 21 Nordeste 0 -- -- 36
2020-07-09 15:00:00 23.6 13 Este 22 Este 0 -- -- 48
2020-07-09 14:00:00 22.2 9 Nordeste 17 Noroeste 0 -- -- 51
2020-07-09 13:00:00 21 12 Noroeste 23 Noroeste 0.2 -- -- 58
2020-07-09 12:00:00 17.4 10 Noroeste 16 Noroeste 0.8 -- -- 74
2020-07-09 11:00:00 17.8 8 Oeste 21 Noroeste 0 -- -- 64
2020-07-09 10:00:00 16.8 14 Noroeste 35 Sur 0.4 -- -- 65
2020-07-09 09:00:00 18.8 6 Norte 15 Oeste 0 -- -- 77
2020-07-09 08:00:00 14.8 6 Noroeste 29 Sur 1.2 -- -- 79
2020-07-09 07:00:00 14.7 5 Sudoeste 28 Oeste 0 -- -- 62
2020-07-09 06:00:00 17.9 22 Oeste 34 Oeste 0 -- -- 50
2020-07-09 05:00:00 19.1 9 Sudoeste 14 Sudoeste 0 -- -- 42
2020-07-09 04:00:00 16.3 8 Oeste 17 Oeste 0 -- -- 51
2020-07-09 03:00:00 18.2 5 Oeste 30 Oeste 0 -- -- 45
2020-07-09 02:00:00 19.7 25 Oeste 32 Oeste 0 -- -- 43
2020-07-09 01:00:00 20.6 19 Oeste 35 Oeste 0 -- -- 41
2020-07-09 00:00:00 20.3 22 Oeste 47 Oeste 0 -- -- 44
2020-07-08 23:00:00 19.3 33 Oeste 54 Oeste 0 -- -- 50
2020-07-08 22:00:00 19.9 26 Noroeste 34 Noroeste 0 -- -- 47
2020-07-08 21:00:00 19.1 24 Oeste 51 Oeste 0 -- -- 52
2020-07-08 20:00:00 18 27 Oeste 56 Oeste 0 -- -- 58
2020-07-08 19:00:00 16.6 41 Sudoeste 74 Sudoeste 0.2 -- -- 73
2020-07-08 18:00:00 22.9 13 Sur 20 Sudeste 0 -- -- 73
2020-07-08 17:00:00 23.6 14 Este 26 Este 0 -- -- 64
2020-07-08 16:00:00 27.2 14 Este 24 Este 0 -- -- 53
2020-07-08 15:00:00 26.8 9 Este 18 Este 0 -- -- 53
2020-07-08 14:00:00 22.7 12 Este 33 Norte 0 -- -- 67
2020-07-08 13:00:00 26.2 13 Noroeste 39 Noroeste 0 -- -- 39
2020-07-08 12:00:00 25.7 7 Este 19 Este 0 -- -- 52
2020-07-08 11:00:00 24.6 6 Sudeste 21 Sudeste 0 -- -- 50
2020-07-08 10:00:00 24 14 Sudoeste 24 Sur 0 -- -- 44
2020-07-08 09:00:00 20.8 4 Este 8 Nordeste 0 -- -- 52
2020-07-08 08:00:00 18.4 2 Norte 12 Sur 0 -- -- 59
2020-07-08 07:00:00 16.1 5 Sudoeste 12 Sur 0 -- -- 62
2020-07-08 06:00:00 15.4 2 Sudoeste 12 Sudoeste 0 -- -- 69
2020-07-08 05:00:00 17.3 11 Sudoeste 14 Sudoeste 0 -- -- 61
2020-07-08 04:00:00 18.4 12 Sudoeste 17 Sudoeste 0 -- -- 61
2020-07-08 03:00:00 18.2 13 Sudoeste 18 Sudoeste 0 -- -- 61
2020-07-08 02:00:00 17.4 6 Sudoeste 12 Sudoeste 0 -- -- 52
2020-07-08 01:00:00 17.3 6 Oeste 10 Sudoeste 0 -- -- 53
2020-07-08 00:00:00 17.6 5 Sudoeste 10 Sudoeste 0 -- -- 56